Shreveport Regional Airport
KSHV : now visible

Airfield :











YOU CAN JOIN US ON...

 
LOGIN :

Register | Disclaimer

   EN    FR    IT 

 









Legend :    VFR   Marginal VFR   IFR   Intensive IFR   Very Intensive IFR
Visi :
Ceiling :
>= 8 km
>= 3000ft
5 to 8 km
1000 to 3000 ft
1500m to 5 km
500 to 1000 ft
800 to 1500m
200 to 500 ft
< 800m
< 200 ft
Symbols :   Thunderstorms  Fog  Heavy snow  Heavy precipitations  Wind > 20 kt






- Airport Elevation : 258 ft
- IATA code : SHV


KSHV - Shreveport Regional

CURRENT METAR :
  • 230156Z 13003KT 10SM BKN090 OVC120 18/06 A3004 RMK AO2 SLP170 T01780056

EXPIRED METARs :
  • 230056Z 14004KT 10SM FEW090 OVC110 18/04 A3002 RMK AO2 SLP165 T01830044
  • 222356Z 15008KT 10SM OVC110 19/04 A3003 RMK AO2 SLP167 BINOVC T01890039 10222 20189 56018

TAF KSHV
Valid from the 23 at 00:00 until the 24 at 00:00 UTC


222340Z 2300/2324 14007KT P6SM OVC100
FM230600 15007KT P6SM BKN060 OVC090
FM231200 14006KT P6SM OVC025
FM231500 14009KT P6SM VCSH OVC015
FM232000 14010G17KT 5SM -SHRA VCTS OVC015CB
FM232200 13012G18KT 2SM SHRA VCTS OVC007CB
KZFW FIR / North America



MET'MAP, your aeronautical weather chart ! - Copyright ORBIFLY December 2007 - Disclaimer

ORBIFLY MET'MAP TEAM :

Programming & Development : Alexandra Zaïnal
Concept & original design : Baudouin d'Aumeries
Assistance for programming : Marc-Olivier Méhu
Technical & hardware support : Manuel Goepfert

Contact : metmap@orbifly.com




SOURCES & CREDITS :

   NOAA       Earth
Advisory